sensor_id;sensor_type;location;lat;lon;timestamp;pressure;altitude;pressure_sealevel;temperature;humidity
3598;BME280;1813;52.016;8.714;2023-02-19T00:01:25;-16261.94;;;-139.71;89.73
3598;BME280;1813;52.016;8.714;2023-02-19T00:04:02;-16261.94;;;-139.71;89.67
3598;BME280;1813;52.016;8.714;2023-02-19T00:06:37;-16261.94;;;-139.71;90.09
3598;BME280;1813;52.016;8.714;2023-02-19T00:09:12;-16261.94;;;-139.71;90.21
3598;BME280;1813;52.016;8.714;2023-02-19T00:11:50;-16261.94;;;-139.71;90.36
3598;BME280;1813;52.016;8.714;2023-02-19T00:14:23;-16261.94;;;-139.71;90.56
3598;BME280;1813;52.016;8.714;2023-02-19T00:16:57;-16261.94;;;-139.71;90.70
3598;BME280;1813;52.016;8.714;2023-02-19T00:19:31;-16261.94;;;-139.71;90.96
3598;BME280;1813;52.016;8.714;2023-02-19T00:22:05;-16261.94;;;-139.71;90.92
3598;BME280;1813;52.016;8.714;2023-02-19T00:24:39;-16261.94;;;-139.71;91.22
3598;BME280;1813;52.016;8.714;2023-02-19T00:27:15;-16261.94;;;-139.71;91.15
3598;BME280;1813;52.016;8.714;2023-02-19T00:29:49;-16261.94;;;-139.71;91.38
3598;BME280;1813;52.016;8.714;2023-02-19T00:32:23;-16261.94;;;-139.71;91.35
3598;BME280;1813;52.016;8.714;2023-02-19T00:34:57;-16261.94;;;-139.71;91.40
3598;BME280;1813;52.016;8.714;2023-02-19T00:37:31;-16261.94;;;-139.71;91.33
3598;BME280;1813;52.016;8.714;2023-02-19T00:40:06;-16261.94;;;-139.71;91.20
3598;BME280;1813;52.016;8.714;2023-02-19T00:42:43;-16261.94;;;-139.71;91.25
3598;BME280;1813;52.016;8.714;2023-02-19T00:45:20;-16261.94;;;-139.71;91.24
3598;BME280;1813;52.016;8.714;2023-02-19T00:47:53;-16261.94;;;-139.71;91.49
3598;BME280;1813;52.016;8.714;2023-02-19T00:50:28;-16261.94;;;-139.71;91.61
3598;BME280;1813;52.016;8.714;2023-02-19T00:53:02;-16261.94;;;-139.71;91.69
3598;BME280;1813;52.016;8.714;2023-02-19T00:55:36;-16261.94;;;-139.71;91.74
3598;BME280;1813;52.016;8.714;2023-02-19T00:58:13;-16261.94;;;-139.71;92.13
3598;BME280;1813;52.016;8.714;2023-02-19T01:00:47;-16261.94;;;-139.71;92.00
3598;BME280;1813;52.016;8.714;2023-02-19T01:03:20;-16261.94;;;-139.71;92.00
3598;BME280;1813;52.016;8.714;2023-02-19T01:05:55;-16261.94;;;-139.71;92.21
3598;BME280;1813;52.016;8.714;2023-02-19T01:08:30;-16261.94;;;-139.71;92.21
3598;BME280;1813;52.016;8.714;2023-02-19T01:11:06;-16261.94;;;-139.71;92.12
3598;BME280;1813;52.016;8.714;2023-02-19T01:13:43;-16261.94;;;-139.71;92.39
3598;BME280;1813;52.016;8.714;2023-02-19T01:16:18;-16261.94;;;-139.71;92.48
3598;BME280;1813;52.016;8.714;2023-02-19T01:18:53;-16261.94;;;-139.71;92.45
3598;BME280;1813;52.016;8.714;2023-02-19T01:21:29;-16261.94;;;-139.71;92.65
3598;BME280;1813;52.016;8.714;2023-02-19T01:24:04;-16261.94;;;-139.71;92.84
3598;BME280;1813;52.016;8.714;2023-02-19T01:26:37;-16261.94;;;-139.71;92.61
3598;BME280;1813;52.016;8.714;2023-02-19T01:29:14;-16261.94;;;-139.71;92.69
3598;BME280;1813;52.016;8.714;2023-02-19T01:31:48;-16261.94;;;-139.71;92.50
3598;BME280;1813;52.016;8.714;2023-02-19T01:34:21;-16261.94;;;-139.71;92.73
3598;BME280;1813;52.016;8.714;2023-02-19T01:36:57;-16261.94;;;-139.71;92.63
3598;BME280;1813;52.016;8.714;2023-02-19T01:39:31;-16261.94;;;-139.71;92.71
3598;BME280;1813;52.016;8.714;2023-02-19T01:42:11;-16261.94;;;-139.71;92.69
3598;BME280;1813;52.016;8.714;2023-02-19T01:48:03;-16261.94;;;-139.71;92.36
3598;BME280;1813;52.016;8.714;2023-02-19T01:50:44;-16261.94;;;-139.71;92.35
3598;BME280;1813;52.016;8.714;2023-02-19T01:53:21;-16261.94;;;-139.71;92.07
3598;BME280;1813;52.016;8.714;2023-02-19T01:55:58;-16261.94;;;-139.71;92.11
3598;BME280;1813;52.016;8.714;2023-02-19T01:58:34;-16261.94;;;-139.71;91.96
3598;BME280;1813;52.016;8.714;2023-02-19T02:01:09;-16261.94;;;-139.71;91.86
3598;BME280;1813;52.016;8.714;2023-02-19T02:03:47;-16261.94;;;-139.71;91.93
3598;BME280;1813;52.016;8.714;2023-02-19T02:06:23;-16261.94;;;-139.71;91.96
3598;BME280;1813;52.016;8.714;2023-02-19T02:08:58;-16261.94;;;-139.71;91.84
3598;BME280;1813;52.016;8.714;2023-02-19T02:11:48;-16261.94;;;-139.71;91.67
3598;BME280;1813;52.016;8.714;2023-02-19T02:14:24;-16261.94;;;-139.71;91.89
3598;BME280;1813;52.016;8.714;2023-02-19T02:17:04;-16261.94;;;-139.71;91.68
3598;BME280;1813;52.016;8.714;2023-02-19T02:20:00;-16261.94;;;-139.71;91.63
3598;BME280;1813;52.016;8.714;2023-02-19T02:22:36;-16261.94;;;-139.71;91.63
3598;BME280;1813;52.016;8.714;2023-02-19T02:28:57;-16261.94;;;-139.71;91.34
3598;BME280;1813;52.016;8.714;2023-02-19T02:31:38;-16261.94;;;-139.71;91.24
3598;BME280;1813;52.016;8.714;2023-02-19T02:34:17;-16261.94;;;-139.71;91.05
3598;BME280;1813;52.016;8.714;2023-02-19T02:36:53;-16261.94;;;-139.71;90.85
3598;BME280;1813;52.016;8.714;2023-02-19T02:39:29;-16261.94;;;-139.71;90.62
3598;BME280;1813;52.016;8.714;2023-02-19T02:42:05;-16261.94;;;-139.71;90.48
3598;BME280;1813;52.016;8.714;2023-02-19T02:45:21;-16261.94;;;-139.71;90.33
3598;BME280;1813;52.016;8.714;2023-02-19T02:48:34;-16261.94;;;-139.71;90.04
3598;BME280;1813;52.016;8.714;2023-02-19T02:51:14;-16261.94;;;-139.71;89.83
3598;BME280;1813;52.016;8.714;2023-02-19T02:53:56;-16261.94;;;-139.71;89.81
3598;BME280;1813;52.016;8.714;2023-02-19T02:56:45;-16261.94;;;-139.71;89.79
3598;BME280;1813;52.016;8.714;2023-02-19T02:59:23;-16261.94;;;-139.71;89.68
3598;BME280;1813;52.016;8.714;2023-02-19T03:02:00;-16261.94;;;-139.71;89.52
3598;BME280;1813;52.016;8.714;2023-02-19T03:04:49;-16261.94;;;-139.71;89.47
3598;BME280;1813;52.016;8.714;2023-02-19T03:07:42;-16261.94;;;-139.71;89.16
3598;BME280;1813;52.016;8.714;2023-02-19T03:10:21;-16261.94;;;-139.71;89.00
3598;BME280;1813;52.016;8.714;2023-02-19T03:12:57;-16261.94;;;-139.71;88.88
3598;BME280;1813;52.016;8.714;2023-02-19T03:15:50;-16261.94;;;-139.71;88.98
3598;BME280;1813;52.016;8.714;2023-02-19T03:18:49;-16261.94;;;-139.71;88.90
3598;BME280;1813;52.016;8.714;2023-02-19T03:21:40;-16261.94;;;-139.71;88.95
3598;BME280;1813;52.016;8.714;2023-02-19T03:24:17;-16261.94;;;-139.71;88.71
3598;BME280;1813;52.016;8.714;2023-02-19T03:27:07;-16261.94;;;-139.71;88.83
3598;BME280;1813;52.016;8.714;2023-02-19T03:29:47;-16261.94;;;-139.71;88.85
3598;BME280;1813;52.016;8.714;2023-02-19T03:32:24;-16261.94;;;-139.71;88.86
3598;BME280;1813;52.016;8.714;2023-02-19T03:35:05;-16261.94;;;-139.71;88.66
3598;BME280;1813;52.016;8.714;2023-02-19T03:37:51;-16261.94;;;-139.71;88.59
3598;BME280;1813;52.016;8.714;2023-02-19T03:40:28;-16261.94;;;-139.71;88.57
3598;BME280;1813;52.016;8.714;2023-02-19T03:43:07;-16261.94;;;-139.71;88.55
3598;BME280;1813;52.016;8.714;2023-02-19T03:45:54;-16261.94;;;-139.71;88.45
3598;BME280;1813;52.016;8.714;2023-02-19T03:48:33;-16261.94;;;-139.71;88.18
3598;BME280;1813;52.016;8.714;2023-02-19T03:51:19;-16261.94;;;-139.71;88.14
3598;BME280;1813;52.016;8.714;2023-02-19T03:54:06;-16261.94;;;-139.71;88.22
3598;BME280;1813;52.016;8.714;2023-02-19T03:56:49;-16261.94;;;-139.71;88.11
3598;BME280;1813;52.016;8.714;2023-02-19T03:59:31;-16261.94;;;-139.71;88.04
3598;BME280;1813;52.016;8.714;2023-02-19T04:02:09;-16261.94;;;-139.71;87.85
3598;BME280;1813;52.016;8.714;2023-02-19T04:04:47;-16261.94;;;-139.71;87.93
3598;BME280;1813;52.016;8.714;2023-02-19T04:07:24;-16261.94;;;-139.71;88.02
3598;BME280;1813;52.016;8.714;2023-02-19T04:10:04;-16261.94;;;-139.71;88.11
3598;BME280;1813;52.016;8.714;2023-02-19T04:12:48;-16261.94;;;-139.71;88.31
3598;BME280;1813;52.016;8.714;2023-02-19T04:15:26;-16261.94;;;-139.71;88.61
3598;BME280;1813;52.016;8.714;2023-02-19T04:18:05;-16261.94;;;-139.71;88.79
3598;BME280;1813;52.016;8.714;2023-02-19T04:20:42;-16261.94;;;-139.71;88.78
3598;BME280;1813;52.016;8.714;2023-02-19T04:23:19;-16261.94;;;-139.71;88.92
3598;BME280;1813;52.016;8.714;2023-02-19T04:25:58;-16261.94;;;-139.71;88.93
3598;BME280;1813;52.016;8.714;2023-02-19T04:28:33;-16261.94;;;-139.71;89.11
3598;BME280;1813;52.016;8.714;2023-02-19T04:31:06;-16261.94;;;-139.71;89.19
3598;BME280;1813;52.016;8.714;2023-02-19T04:33:41;-16261.94;;;-139.71;89.16
3598;BME280;1813;52.016;8.714;2023-02-19T04:36:14;-16261.94;;;-139.71;89.10
3598;BME280;1813;52.016;8.714;2023-02-19T04:38:48;-16261.94;;;-139.71;89.03
3598;BME280;1813;52.016;8.714;2023-02-19T04:41:25;-16261.94;;;-139.71;89.25
3598;BME280;1813;52.016;8.714;2023-02-19T04:43:58;-16261.94;;;-139.71;89.08
3598;BME280;1813;52.016;8.714;2023-02-19T04:46:32;-16261.94;;;-139.71;89.01
3598;BME280;1813;52.016;8.714;2023-02-19T04:49:06;-16261.94;;;-139.71;88.90
3598;BME280;1813;52.016;8.714;2023-02-19T04:51:40;-16261.94;;;-139.71;88.77
3598;BME280;1813;52.016;8.714;2023-02-19T04:54:14;-16261.94;;;-139.71;88.76
3598;BME280;1813;52.016;8.714;2023-02-19T04:56:50;-16261.94;;;-139.71;88.70
3598;BME280;1813;52.016;8.714;2023-02-19T04:59:24;-16261.94;;;-139.71;88.40
3598;BME280;1813;52.016;8.714;2023-02-19T05:01:58;-16261.94;;;-139.71;88.40
3598;BME280;1813;52.016;8.714;2023-02-19T05:04:33;-16261.94;;;-139.71;88.36
3598;BME280;1813;52.016;8.714;2023-02-19T05:07:07;-16261.94;;;-139.71;88.13
3598;BME280;1813;52.016;8.714;2023-02-19T05:09:41;-16261.94;;;-139.71;87.98
3598;BME280;1813;52.016;8.714;2023-02-19T05:12:17;-16261.94;;;-139.71;87.81
3598;BME280;1813;52.016;8.714;2023-02-19T05:14:51;-16261.94;;;-139.71;87.63
3598;BME280;1813;52.016;8.714;2023-02-19T05:17:24;-16261.94;;;-139.71;87.52
3598;BME280;1813;52.016;8.714;2023-02-19T05:19:58;-16261.94;;;-139.71;87.21
3598;BME280;1813;52.016;8.714;2023-02-19T05:22:32;-16261.94;;;-139.71;86.77
3598;BME280;1813;52.016;8.714;2023-02-19T05:25:06;-16261.94;;;-139.71;86.29
3598;BME280;1813;52.016;8.714;2023-02-19T05:27:42;-16261.94;;;-139.71;85.97
3598;BME280;1813;52.016;8.714;2023-02-19T05:30:16;-16261.94;;;-139.71;85.87
3598;BME280;1813;52.016;8.714;2023-02-19T05:32:50;-16261.94;;;-139.71;85.56
3598;BME280;1813;52.016;8.714;2023-02-19T05:35:24;-16261.94;;;-139.71;85.33
3598;BME280;1813;52.016;8.714;2023-02-19T05:37:58;-16261.94;;;-139.71;85.36
3598;BME280;1813;52.016;8.714;2023-02-19T05:40:32;-16261.94;;;-139.71;85.36
3598;BME280;1813;52.016;8.714;2023-02-19T05:43:09;-16261.94;;;-139.71;85.12
3598;BME280;1813;52.016;8.714;2023-02-19T05:45:43;-16261.94;;;-139.71;85.25
3598;BME280;1813;52.016;8.714;2023-02-19T05:48:17;-16261.94;;;-139.71;85.01
3598;BME280;1813;52.016;8.714;2023-02-19T05:50:50;-16261.94;;;-139.71;85.03
3598;BME280;1813;52.016;8.714;2023-02-19T05:53:24;-16261.94;;;-139.71;85.04
3598;BME280;1813;52.016;8.714;2023-02-19T05:55:58;-16261.94;;;-139.71;85.16
3598;BME280;1813;52.016;8.714;2023-02-19T05:58:34;-16261.94;;;-139.71;85.02
3598;BME280;1813;52.016;8.714;2023-02-19T06:01:14;-16261.94;;;-139.71;85.16
3598;BME280;1813;52.016;8.714;2023-02-19T06:03:49;-16261.94;;;-139.71;85.27
3598;BME280;1813;52.016;8.714;2023-02-19T06:06:23;-16261.94;;;-139.71;85.31
3598;BME280;1813;52.016;8.714;2023-02-19T06:08:57;-16261.94;;;-139.71;85.23
3598;BME280;1813;52.016;8.714;2023-02-19T06:11:32;-16261.94;;;-139.71;85.15
3598;BME280;1813;52.016;8.714;2023-02-19T06:14:11;-16261.94;;;-139.71;85.29
3598;BME280;1813;52.016;8.714;2023-02-19T06:16:46;-16261.94;;;-139.71;85.22
3598;BME280;1813;52.016;8.714;2023-02-19T06:19:19;-16261.94;;;-139.71;85.22
3598;BME280;1813;52.016;8.714;2023-02-19T06:21:53;-16261.94;;;-139.71;84.16
3598;BME280;1813;52.016;8.714;2023-02-19T06:24:27;-16261.94;;;-139.71;82.49
3598;BME280;1813;52.016;8.714;2023-02-19T06:27:01;-16261.94;;;-139.71;81.50
3598;BME280;1813;52.016;8.714;2023-02-19T06:29:40;-16261.94;;;-139.71;81.07
3598;BME280;1813;52.016;8.714;2023-02-19T06:32:13;-16261.94;;;-139.71;80.74
3598;BME280;1813;52.016;8.714;2023-02-19T06:34:47;-16261.94;;;-139.71;80.35
3598;BME280;1813;52.016;8.714;2023-02-19T06:37:21;-16261.94;;;-139.71;80.14
3598;BME280;1813;52.016;8.714;2023-02-19T06:39:55;-16261.94;;;-139.71;80.32
3598;BME280;1813;52.016;8.714;2023-02-19T06:42:30;-16261.94;;;-139.71;80.32
3598;BME280;1813;52.016;8.714;2023-02-19T06:45:08;-16261.94;;;-139.71;80.62
3598;BME280;1813;52.016;8.714;2023-02-19T06:47:41;-16261.94;;;-139.71;80.86
3598;BME280;1813;52.016;8.714;2023-02-19T06:50:15;-16261.94;;;-139.71;81.12
3598;BME280;1813;52.016;8.714;2023-02-19T06:52:49;-16261.94;;;-139.71;81.13
3598;BME280;1813;52.016;8.714;2023-02-19T06:55:22;-16261.94;;;-139.71;81.25
3598;BME280;1813;52.016;8.714;2023-02-19T06:57:56;-16261.94;;;-139.71;81.52
3598;BME280;1813;52.016;8.714;2023-02-19T07:00:33;-16261.94;;;-139.71;81.66
3598;BME280;1813;52.016;8.714;2023-02-19T07:03:08;-16261.94;;;-139.71;81.97
3598;BME280;1813;52.016;8.714;2023-02-19T07:05:42;-16261.94;;;-139.71;81.79
3598;BME280;1813;52.016;8.714;2023-02-19T07:08:16;-16261.94;;;-139.71;82.14
3598;BME280;1813;52.016;8.714;2023-02-19T07:10:56;-16261.94;;;-139.71;82.10
3598;BME280;1813;52.016;8.714;2023-02-19T07:13:30;-16261.94;;;-139.71;82.13
3598;BME280;1813;52.016;8.714;2023-02-19T07:16:08;-16261.94;;;-139.71;82.19
3598;BME280;1813;52.016;8.714;2023-02-19T07:18:41;-16261.94;;;-139.71;82.37
3598;BME280;1813;52.016;8.714;2023-02-19T07:21:16;-16261.94;;;-139.71;82.32
3598;BME280;1813;52.016;8.714;2023-02-19T07:23:51;-16261.94;;;-139.71;82.47
3598;BME280;1813;52.016;8.714;2023-02-19T07:26:25;-16261.94;;;-139.71;82.39
3598;BME280;1813;52.016;8.714;2023-02-19T07:28:58;-16261.94;;;-139.71;82.52
3598;BME280;1813;52.016;8.714;2023-02-19T07:31:35;-16261.94;;;-139.71;82.53
3598;BME280;1813;52.016;8.714;2023-02-19T07:34:09;-16261.94;;;-139.71;82.32
3598;BME280;1813;52.016;8.714;2023-02-19T07:36:43;-16261.94;;;-139.71;82.46
3598;BME280;1813;52.016;8.714;2023-02-19T07:39:16;-16261.94;;;-139.71;82.47
3598;BME280;1813;52.016;8.714;2023-02-19T07:41:50;-16261.94;;;-139.71;82.62
3598;BME280;1813;52.016;8.714;2023-02-19T07:44:31;-16261.94;;;-139.71;82.66
3598;BME280;1813;52.016;8.714;2023-02-19T07:47:07;-16261.94;;;-139.71;82.52
3598;BME280;1813;52.016;8.714;2023-02-19T07:49:40;-16261.94;;;-139.71;82.50
3598;BME280;1813;52.016;8.714;2023-02-19T07:52:14;-16261.94;;;-139.71;82.47
3598;BME280;1813;52.016;8.714;2023-02-19T07:54:48;-16261.94;;;-139.71;82.57
3598;BME280;1813;52.016;8.714;2023-02-19T07:57:22;-16261.94;;;-139.71;82.76
3598;BME280;1813;52.016;8.714;2023-02-19T07:59:56;-16261.94;;;-139.71;82.73
3598;BME280;1813;52.016;8.714;2023-02-19T08:02:32;-16261.94;;;-139.71;82.51
3598;BME280;1813;52.016;8.714;2023-02-19T08:05:18;-16261.94;;;-139.71;82.42
3598;BME280;1813;52.016;8.714;2023-02-19T08:07:52;-16261.94;;;-139.71;82.34
3598;BME280;1813;52.016;8.714;2023-02-19T08:10:27;-16261.94;;;-139.71;82.19
3598;BME280;1813;52.016;8.714;2023-02-19T08:13:14;-16261.94;;;-139.71;82.07
3598;BME280;1813;52.016;8.714;2023-02-19T08:15:53;-16261.94;;;-139.71;82.18
3598;BME280;1813;52.016;8.714;2023-02-19T08:18:31;-16261.94;;;-139.71;82.29
3598;BME280;1813;52.016;8.714;2023-02-19T08:21:05;-16261.94;;;-139.71;82.72
3598;BME280;1813;52.016;8.714;2023-02-19T08:23:41;-16261.94;;;-139.71;82.54
3598;BME280;1813;52.016;8.714;2023-02-19T08:26:15;-16261.94;;;-139.71;82.32
3598;BME280;1813;52.016;8.714;2023-02-19T08:28:49;-16261.94;;;-139.71;81.92
3598;BME280;1813;52.016;8.714;2023-02-19T08:31:23;-16261.94;;;-139.71;81.65
3598;BME280;1813;52.016;8.714;2023-02-19T08:34:00;-16261.94;;;-139.71;81.77
3598;BME280;1813;52.016;8.714;2023-02-19T08:36:36;-16261.94;;;-139.71;81.81
3598;BME280;1813;52.016;8.714;2023-02-19T08:39:10;-16261.94;;;-139.71;82.16
3598;BME280;1813;52.016;8.714;2023-02-19T08:41:43;-16261.94;;;-139.71;82.14
3598;BME280;1813;52.016;8.714;2023-02-19T08:44:17;-16261.94;;;-139.71;81.90
3598;BME280;1813;52.016;8.714;2023-02-19T08:46:51;-16261.94;;;-139.71;81.64
3598;BME280;1813;52.016;8.714;2023-02-19T08:49:28;-16261.94;;;-139.71;80.77
3598;BME280;1813;52.016;8.714;2023-02-19T08:52:02;-16261.94;;;-139.71;80.21
3598;BME280;1813;52.016;8.714;2023-02-19T08:54:36;-16261.94;;;-139.71;80.05
3598;BME280;1813;52.016;8.714;2023-02-19T08:57:09;-16261.94;;;-139.71;79.94
3598;BME280;1813;52.016;8.714;2023-02-19T08:59:43;-16261.94;;;-139.71;80.07
3598;BME280;1813;52.016;8.714;2023-02-19T09:02:17;-16261.94;;;-139.71;80.12
3598;BME280;1813;52.016;8.714;2023-02-19T09:04:53;-16261.94;;;-139.71;79.92
3598;BME280;1813;52.016;8.714;2023-02-19T09:07:27;-16261.94;;;-139.71;79.80
3598;BME280;1813;52.016;8.714;2023-02-19T09:10:01;-16261.94;;;-139.71;79.48
3598;BME280;1813;52.016;8.714;2023-02-19T09:12:35;-16261.94;;;-139.71;79.28
3598;BME280;1813;52.016;8.714;2023-02-19T09:15:10;-16261.94;;;-139.71;79.43
3598;BME280;1813;52.016;8.714;2023-02-19T09:17:44;-16261.94;;;-139.71;79.70
3598;BME280;1813;52.016;8.714;2023-02-19T09:20:21;-16261.94;;;-139.71;79.86
3598;BME280;1813;52.016;8.714;2023-02-19T09:22:56;-16261.94;;;-139.71;79.72
3598;BME280;1813;52.016;8.714;2023-02-19T09:25:30;-16261.94;;;-139.71;79.66
3598;BME280;1813;52.016;8.714;2023-02-19T09:28:04;-16261.94;;;-139.71;79.73
3598;BME280;1813;52.016;8.714;2023-02-19T09:30:38;-16261.94;;;-139.71;79.60
3598;BME280;1813;52.016;8.714;2023-02-19T09:33:11;-16261.94;;;-139.71;80.07
3598;BME280;1813;52.016;8.714;2023-02-19T09:35:48;-16261.94;;;-139.71;80.20
3598;BME280;1813;52.016;8.714;2023-02-19T09:38:22;-16261.94;;;-139.71;80.18
3598;BME280;1813;52.016;8.714;2023-02-19T09:40:56;-16261.94;;;-139.71;80.39
3598;BME280;1813;52.016;8.714;2023-02-19T09:43:30;-16261.94;;;-139.71;80.45
3598;BME280;1813;52.016;8.714;2023-02-19T09:46:17;-16261.94;;;-139.71;80.30
3598;BME280;1813;52.016;8.714;2023-02-19T09:48:57;-16261.94;;;-139.71;80.55
3598;BME280;1813;52.016;8.714;2023-02-19T09:51:38;-16261.94;;;-139.71;81.04
3598;BME280;1813;52.016;8.714;2023-02-19T09:54:19;-16261.94;;;-139.71;81.39
3598;BME280;1813;52.016;8.714;2023-02-19T09:56:54;-16261.94;;;-139.71;81.55
3598;BME280;1813;52.016;8.714;2023-02-19T09:59:34;-16261.94;;;-139.71;81.44
3598;BME280;1813;52.016;8.714;2023-02-19T10:02:13;-16261.94;;;-139.71;81.87
3598;BME280;1813;52.016;8.714;2023-02-19T10:04:48;-16261.94;;;-139.71;81.67
3598;BME280;1813;52.016;8.714;2023-02-19T10:07:32;-16261.94;;;-139.71;80.38
3598;BME280;1813;52.016;8.714;2023-02-19T10:10:22;-16261.94;;;-139.71;78.92
3598;BME280;1813;52.016;8.714;2023-02-19T10:13:08;-16261.94;;;-139.71;78.81
3598;BME280;1813;52.016;8.714;2023-02-19T10:15:46;-16261.94;;;-139.71;78.08
3598;BME280;1813;52.016;8.714;2023-02-19T10:18:22;-16261.94;;;-139.71;77.27
3598;BME280;1813;52.016;8.714;2023-02-19T10:20:58;-16261.94;;;-139.71;76.15
3598;BME280;1813;52.016;8.714;2023-02-19T10:23:35;-16261.94;;;-139.71;74.97
3598;BME280;1813;52.016;8.714;2023-02-19T10:26:21;-16261.94;;;-139.71;75.25
3598;BME280;1813;52.016;8.714;2023-02-19T10:28:55;-16261.94;;;-139.71;74.51
3598;BME280;1813;52.016;8.714;2023-02-19T10:31:30;-16261.94;;;-139.71;73.43
3598;BME280;1813;52.016;8.714;2023-02-19T10:34:05;-16261.94;;;-139.71;73.13
3598;BME280;1813;52.016;8.714;2023-02-19T10:36:50;-16261.94;;;-139.71;73.26
3598;BME280;1813;52.016;8.714;2023-02-19T10:39:37;-16261.94;;;-139.71;72.35
3598;BME280;1813;52.016;8.714;2023-02-19T10:42:20;-16261.94;;;-139.71;73.76
3598;BME280;1813;52.016;8.714;2023-02-19T10:44:57;-16261.94;;;-139.71;73.80
3598;BME280;1813;52.016;8.714;2023-02-19T10:47:32;-16261.94;;;-139.71;73.58
3598;BME280;1813;52.016;8.714;2023-02-19T10:50:20;-16261.94;;;-139.71;72.74
3598;BME280;1813;52.016;8.714;2023-02-19T10:52:58;-16261.94;;;-139.71;71.56
3598;BME280;1813;52.016;8.714;2023-02-19T10:55:34;-16261.94;;;-139.71;71.22
3598;BME280;1813;52.016;8.714;2023-02-19T10:58:33;-16261.94;;;-139.71;71.41
3598;BME280;1813;52.016;8.714;2023-02-19T11:01:15;-16261.94;;;-139.71;70.40
3598;BME280;1813;52.016;8.714;2023-02-19T11:03:50;-16261.94;;;-139.71;69.71
3598;BME280;1813;52.016;8.714;2023-02-19T11:06:25;-16261.94;;;-139.71;68.48
3598;BME280;1813;52.016;8.714;2023-02-19T11:09:00;-16261.94;;;-139.71;69.07
3598;BME280;1813;52.016;8.714;2023-02-19T11:11:35;-16261.94;;;-139.71;68.91
3598;BME280;1813;52.016;8.714;2023-02-19T11:14:16;-16261.94;;;-139.71;68.61
3598;BME280;1813;52.016;8.714;2023-02-19T11:16:52;-16261.94;;;-139.71;68.02
3598;BME280;1813;52.016;8.714;2023-02-19T11:19:32;-16261.94;;;-139.71;67.01
3598;BME280;1813;52.016;8.714;2023-02-19T11:22:28;-16261.94;;;-139.71;65.59
3598;BME280;1813;52.016;8.714;2023-02-19T11:25:05;-16261.94;;;-139.71;64.72
3598;BME280;1813;52.016;8.714;2023-02-19T11:27:53;-16261.94;;;-139.71;63.91
3598;BME280;1813;52.016;8.714;2023-02-19T11:30:36;-16261.94;;;-139.71;62.10
3598;BME280;1813;52.016;8.714;2023-02-19T11:33:24;-16261.94;;;-139.71;61.27
3598;BME280;1813;52.016;8.714;2023-02-19T11:36:21;-16261.94;;;-139.71;60.81
3598;BME280;1813;52.016;8.714;2023-02-19T11:38:57;-16261.94;;;-139.71;60.09
3598;BME280;1813;52.016;8.714;2023-02-19T11:41:49;-16261.94;;;-139.71;60.46
3598;BME280;1813;52.016;8.714;2023-02-19T11:44:36;-16261.94;;;-139.71;60.59
3598;BME280;1813;52.016;8.714;2023-02-19T11:47:51;-16261.94;;;-139.71;61.11
3598;BME280;1813;52.016;8.714;2023-02-19T11:50:35;-16261.94;;;-139.71;60.60
3598;BME280;1813;52.016;8.714;2023-02-19T11:53:22;-16261.94;;;-139.71;60.26
3598;BME280;1813;52.016;8.714;2023-02-19T11:56:11;-16261.94;;;-139.71;61.26
3598;BME280;1813;52.016;8.714;2023-02-19T11:59:00;-16261.94;;;-139.71;58.72
3598;BME280;1813;52.016;8.714;2023-02-19T12:02:04;-16261.94;;;-139.71;57.78
3598;BME280;1813;52.016;8.714;2023-02-19T12:11:02;-16261.94;;;-139.71;57.03
3598;BME280;1813;52.016;8.714;2023-02-19T12:13:49;-16261.94;;;-139.71;54.63
3598;BME280;1813;52.016;8.714;2023-02-19T12:16:33;-16261.94;;;-139.71;53.98
3598;BME280;1813;52.016;8.714;2023-02-19T12:19:31;-16261.94;;;-139.71;56.54
3598;BME280;1813;52.016;8.714;2023-02-19T12:22:23;-16261.94;;;-139.71;55.55
3598;BME280;1813;52.016;8.714;2023-02-19T12:28:30;-16261.94;;;-139.71;54.22
3598;BME280;1813;52.016;8.714;2023-02-19T12:31:25;-16261.94;;;-139.71;54.57
3598;BME280;1813;52.016;8.714;2023-02-19T12:34:25;-16261.94;;;-139.71;55.83
3598;BME280;1813;52.016;8.714;2023-02-19T12:37:17;-16261.94;;;-139.71;55.78
3598;BME280;1813;52.016;8.714;2023-02-19T12:40:13;-16261.94;;;-139.71;55.00
3598;BME280;1813;52.016;8.714;2023-02-19T12:42:56;-16261.94;;;-139.71;55.89
3598;BME280;1813;52.016;8.714;2023-02-19T12:45:41;-16261.94;;;-139.71;57.15
3598;BME280;1813;52.016;8.714;2023-02-19T12:48:24;-16261.94;;;-139.71;56.13
3598;BME280;1813;52.016;8.714;2023-02-19T12:51:05;-16261.94;;;-139.71;54.80
3598;BME280;1813;52.016;8.714;2023-02-19T12:53:43;-16261.94;;;-139.71;51.68
3598;BME280;1813;52.016;8.714;2023-02-19T12:56:23;-16261.94;;;-139.71;50.36
3598;BME280;1813;52.016;8.714;2023-02-19T12:59:02;-16261.94;;;-139.71;50.21
3598;BME280;1813;52.016;8.714;2023-02-19T13:01:55;-16261.94;;;-139.71;50.73
3598;BME280;1813;52.016;8.714;2023-02-19T13:04:36;-16261.94;;;-139.71;52.27
3598;BME280;1813;52.016;8.714;2023-02-19T13:07:14;-16261.94;;;-139.71;52.96
3598;BME280;1813;52.016;8.714;2023-02-19T13:09:52;-16261.94;;;-139.71;52.89
3598;BME280;1813;52.016;8.714;2023-02-19T13:12:29;-16261.94;;;-139.71;53.91
3598;BME280;1813;52.016;8.714;2023-02-19T13:15:14;-16261.94;;;-139.71;52.61
3598;BME280;1813;52.016;8.714;2023-02-19T13:17:54;-16261.94;;;-139.71;52.51
3598;BME280;1813;52.016;8.714;2023-02-19T13:20:31;-16261.94;;;-139.71;51.93
3598;BME280;1813;52.016;8.714;2023-02-19T13:23:11;-16261.94;;;-139.71;51.59
3598;BME280;1813;52.016;8.714;2023-02-19T13:26:14;-16261.94;;;-139.71;51.46
3598;BME280;1813;52.016;8.714;2023-02-19T13:29:15;-16261.94;;;-139.71;52.82
3598;BME280;1813;52.016;8.714;2023-02-19T13:32:20;-16261.94;;;-139.71;51.93
3598;BME280;1813;52.016;8.714;2023-02-19T13:35:23;-16261.94;;;-139.71;52.70
3598;BME280;1813;52.016;8.714;2023-02-19T13:38:00;-16261.94;;;-139.71;53.23
3598;BME280;1813;52.016;8.714;2023-02-19T13:40:36;-16261.94;;;-139.71;53.14
3598;BME280;1813;52.016;8.714;2023-02-19T13:43:22;-16261.94;;;-139.71;52.80
3598;BME280;1813;52.016;8.714;2023-02-19T13:45:59;-16261.94;;;-139.71;52.48
3598;BME280;1813;52.016;8.714;2023-02-19T13:48:35;-16261.94;;;-139.71;52.54
3598;BME280;1813;52.016;8.714;2023-02-19T13:51:48;-16261.94;;;-139.71;54.17
3598;BME280;1813;52.016;8.714;2023-02-19T13:54:24;-16261.94;;;-139.71;53.88
3598;BME280;1813;52.016;8.714;2023-02-19T13:57:28;-16261.94;;;-139.71;53.69
3598;BME280;1813;52.016;8.714;2023-02-19T14:03:28;-16261.94;;;-139.71;53.09
3598;BME280;1813;52.016;8.714;2023-02-19T14:06:04;-16261.94;;;-139.71;52.22
3598;BME280;1813;52.016;8.714;2023-02-19T14:08:51;-16261.94;;;-139.71;51.44
3598;BME280;1813;52.016;8.714;2023-02-19T14:14:34;-16261.94;;;-139.71;51.13